Time;durP1;ratioP1;P1;durP2;ratioP2;P2;SDS_P1;SDS_P2;PMS_P1;PMS_P2;Temp;Humidity;BMP_temperature;BMP_pressure;BME280_temperature;BME280_humidity;BME280_pressure;Samples;Min_cycle;Max_cycle;Signal;HPM_P1;HPM_P2
2022/11/06 00:00:20;;;;;;;6;5;;;;;;;;;;;;;
2022/11/06 00:03:03;;;;;;;7;5.2;;;;;;;;;;;;;
2022/11/06 00:07:45;;;;;;;4.7;3.8;;;;;;;;;;;;;
2022/11/06 00:10:08;;;;;;;3.2;2.9;;;;;;;;;;;;;
2022/11/06 00:12:37;;;;;;;3.6;3.1;;;;;;;;;;;;;
2022/11/06 00:17:38;;;;;;;4.2;3.3;;;;;;;;;;;;;
2022/11/06 00:20:12;;;;;;;4;3.2;;;;;;;;;;;;;
2022/11/06 00:22:41;;;;;;;3.5;3.1;;;;;;;;;;;;;
2022/11/06 00:25:08;;;;;;;4.6;3.3;;;;;;;;;;;;;
2022/11/06 00:27:33;;;;;;;3.6;3;;;;;;;;;;;;;
2022/11/06 00:30:04;;;;;;;3.3;2.9;;;;;;;;;;;;;
2022/11/06 00:32:34;;;;;;;3.4;3;;;;;;;;;;;;;
2022/11/06 00:35:01;;;;;;;3.4;3;;;;;;;;;;;;;
2022/11/06 00:37:26;;;;;;;2.9;2.6;;;;;;;;;;;;;
2022/11/06 00:39:52;;;;;;;3.4;3.1;;;;;;;;;;;;;
2022/11/06 00:42:17;;;;;;;3.6;3.3;;;;;;;;;;;;;
2022/11/06 00:44:42;;;;;;;3.4;3.1;;;;;;;;;;;;;
2022/11/06 00:47:10;;;;;;;3.4;3.1;;;;;;;;;;;;;
2022/11/06 00:49:35;;;;;;;3.7;3.1;;;;;;;;;;;;;
2022/11/06 00:52:01;;;;;;;4.5;3;;;;;;;;;;;;;
2022/11/06 00:54:26;;;;;;;3.9;3.1;;;;;;;;;;;;;
2022/11/06 00:56:51;;;;;;;2.9;2.6;;;;;;;;;;;;;
2022/11/06 00:59:16;;;;;;;3.9;3.2;;;;;;;;;;;;;
2022/11/06 01:01:43;;;;;;;3.4;3;;;;;;;;;;;;;
2022/11/06 01:04:08;;;;;;;2.5;2.3;;;;;;;;;;;;;
2022/11/06 01:06:33;;;;;;;2.7;2.5;;;;;;;;;;;;;
2022/11/06 01:08:59;;;;;;;2.9;2.6;;;;;;;;;;;;;
2022/11/06 01:11:24;;;;;;;2.8;2.5;;;;;;;;;;;;;
2022/11/06 01:13:50;;;;;;;2.9;2.5;;;;;;;;;;;;;
2022/11/06 01:16:15;;;;;;;3.2;2.6;;;;;;;;;;;;;
2022/11/06 01:18:40;;;;;;;3.7;2.6;;;;;;;;;;;;;
2022/11/06 01:21:05;;;;;;;3.2;2.9;;;;;;;;;;;;;
2022/11/06 01:23:30;;;;;;;2.6;2.4;;;;;;;;;;;;;
2022/11/06 01:25:56;;;;;;;3.4;2.7;;;;;;;;;;;;;
2022/11/06 01:28:21;;;;;;;3;2.7;;;;;;;;;;;;;
2022/11/06 01:30:46;;;;;;;2.7;2.4;;;;;;;;;;;;;
2022/11/06 01:33:11;;;;;;;2.6;2.3;;;;;;;;;;;;;
2022/11/06 01:35:37;;;;;;;2.3;2.1;;;;;;;;;;;;;
2022/11/06 01:38:02;;;;;;;2.6;2.2;;;;;;;;;;;;;
2022/11/06 01:40:29;;;;;;;2;1.8;;;;;;;;;;;;;
2022/11/06 01:42:54;;;;;;;2;1.8;;;;;;;;;;;;;
2022/11/06 01:45:20;;;;;;;1.6;1.5;;;;;;;;;;;;;
2022/11/06 01:47:45;;;;;;;1.7;1.6;;;;;;;;;;;;;
2022/11/06 01:50:11;;;;;;;1.7;1.6;;;;;;;;;;;;;
2022/11/06 01:52:36;;;;;;;2.4;2.2;;;;;;;;;;;;;
2022/11/06 01:55:01;;;;;;;2.3;2.1;;;;;;;;;;;;;
2022/11/06 01:57:27;;;;;;;2.1;1.9;;;;;;;;;;;;;
2022/11/06 01:59:53;;;;;;;2.3;2.1;;;;;;;;;;;;;
2022/11/06 02:02:18;;;;;;;2.6;2.1;;;;;;;;;;;;;
2022/11/06 02:04:43;;;;;;;2.2;2;;;;;;;;;;;;;
2022/11/06 02:07:09;;;;;;;2.6;2.4;;;;;;;;;;;;;
2022/11/06 02:09:36;;;;;;;2.4;2.2;;;;;;;;;;;;;
2022/11/06 02:12:01;;;;;;;3.7;3;;;;;;;;;;;;;
2022/11/06 02:14:28;;;;;;;3.6;2.9;;;;;;;;;;;;;
2022/11/06 02:16:53;;;;;;;2.3;2.1;;;;;;;;;;;;;
2022/11/06 02:19:18;;;;;;;2.3;2.1;;;;;;;;;;;;;
2022/11/06 02:21:43;;;;;;;2.3;2.1;;;;;;;;;;;;;
2022/11/06 02:24:09;;;;;;;2.8;2.5;;;;;;;;;;;;;
2022/11/06 02:26:33;;;;;;;2.1;1.9;;;;;;;;;;;;;
2022/11/06 02:28:59;;;;;;;2;1.8;;;;;;;;;;;;;
2022/11/06 02:31:24;;;;;;;2.4;2.2;;;;;;;;;;;;;
2022/11/06 02:33:49;;;;;;;2.2;1.9;;;;;;;;;;;;;
2022/11/06 02:36:15;;;;;;;2.1;1.9;;;;;;;;;;;;;
2022/11/06 02:38:40;;;;;;;1.8;1.7;;;;;;;;;;;;;
2022/11/06 02:41:05;;;;;;;3.2;2.7;;;;;;;;;;;;;
2022/11/06 02:43:31;;;;;;;2.4;2.2;;;;;;;;;;;;;
2022/11/06 02:45:57;;;;;;;2.2;2;;;;;;;;;;;;;
2022/11/06 02:48:21;;;;;;;2.2;2;;;;;;;;;;;;;
2022/11/06 02:50:46;;;;;;;2.5;2;;;;;;;;;;;;;
2022/11/06 02:53:12;;;;;;;2.1;1.9;;;;;;;;;;;;;
2022/11/06 02:55:37;;;;;;;4.4;2.7;;;;;;;;;;;;;
2022/11/06 02:58:02;;;;;;;3.1;2.3;;;;;;;;;;;;;
2022/11/06 03:00:30;;;;;;;3;2.6;;;;;;;;;;;;;
2022/11/06 03:02:55;;;;;;;3.4;2.3;;;;;;;;;;;;;
2022/11/06 03:05:21;;;;;;;3;2.3;;;;;;;;;;;;;
2022/11/06 03:07:46;;;;;;;2.7;2.3;;;;;;;;;;;;;
2022/11/06 03:10:12;;;;;;;3.8;2.3;;;;;;;;;;;;;
2022/11/06 03:12:37;;;;;;;3.6;2.5;;;;;;;;;;;;;
2022/11/06 03:15:03;;;;;;;3.9;2.6;;;;;;;;;;;;;
2022/11/06 03:17:28;;;;;;;6.4;5.2;;;;;;;;;;;;;
2022/11/06 03:22:18;;;;;;;1.8;1.7;;;;;;;;;;;;;
2022/11/06 03:24:45;;;;;;;1.7;1.6;;;;;;;;;;;;;
2022/11/06 03:27:10;;;;;;;1.7;1.6;;;;;;;;;;;;;
2022/11/06 03:29:36;;;;;;;1.7;1.6;;;;;;;;;;;;;
2022/11/06 03:32:18;;;;;;;1.8;1.6;;;;;;;;;;;;;
2022/11/06 03:34:43;;;;;;;1.7;1.6;;;;;;;;;;;;;
2022/11/06 03:37:09;;;;;;;1.7;1.6;;;;;;;;;;;;;
2022/11/06 03:39:34;;;;;;;2.2;2;;;;;;;;;;;;;
2022/11/06 03:41:59;;;;;;;2;1.8;;;;;;;;;;;;;
2022/11/06 03:44:25;;;;;;;1.5;1.4;;;;;;;;;;;;;
2022/11/06 03:46:50;;;;;;;2.3;1.8;;;;;;;;;;;;;
2022/11/06 03:49:15;;;;;;;1.7;1.6;;;;;;;;;;;;;
2022/11/06 03:51:41;;;;;;;1.4;1.3;;;;;;;;;;;;;
2022/11/06 03:54:06;;;;;;;1.6;1.3;;;;;;;;;;;;;
2022/11/06 03:56:31;;;;;;;1.5;1.4;;;;;;;;;;;;;
2022/11/06 03:58:56;;;;;;;1.4;1.3;;;;;;;;;;;;;
2022/11/06 04:02:34;;;;;;;1.7;1.6;;;;;;;3.57;99.67676;940.2189;;;;
2022/11/06 04:04:59;;;;;;;2.1;1.9;;;;;;;3.45;99.95313;940.2718;;;;
2022/11/06 04:07:32;;;;;;;1.9;1.7;;;;;;;3.5;100;940.2648;;;;
2022/11/06 04:14:56;;;;;;;2.4;1.8;;;;;;;3.76;100;940.2004;;;;
2022/11/06 04:17:23;;;;;;;2.1;1.7;;;;;;;3.8;99.0918;940.135;;;;
2022/11/06 04:19:51;;;;;;;1.6;1.5;;;;;;;3.72;98.85645;940.1538;;;;
2022/11/06 04:22:17;;;;;;;1.6;1.5;;;;;;;3.66;98.50488;940.1776;;;;
2022/11/06 04:27:07;;;;;;;3.3;2.3;;;;;;;3.72;96.99121;940.2877;;;;
2022/11/06 04:29:36;;;;;;;1.9;1.7;;;;;;;3.63;96.72559;940.3019;;;;
2022/11/06 04:32:02;;;;;;;3.1;2.1;;;;;;;3.55;97.04395;940.2441;;;;
2022/11/06 04:34:27;;;;;;;2.5;1.9;;;;;;;3.43;97.52051;940.2322;;;;
2022/11/06 04:36:52;;;;;;;3.3;2.3;;;;;;;3.2;98.45703;940.2397;;;;
2022/11/06 04:39:17;;;;;;;4.8;3.2;;;;;;;3.29;98.25488;940.2266;;;;
2022/11/06 04:41:43;;;;;;;3.4;2.9;;;;;;;3.2;97.88477;940.1818;;;;
2022/11/06 04:44:08;;;;;;;4.4;2.4;;;;;;;3.14;98.01758;940.1472;;;;
2022/11/06 04:46:33;;;;;;;3;2;;;;;;;3.02;98.57227;940.0902;;;;
2022/11/06 04:48:58;;;;;;;2.1;1.9;;;;;;;3;98.81445;940.1664;;;;
2022/11/06 04:51:24;;;;;;;1.6;1.5;;;;;;;2.9;99.19336;940.0261;;;;
2022/11/06 04:53:49;;;;;;;2.7;2.1;;;;;;;2.87;99.66895;940.055;;;;
2022/11/06 04:56:18;;;;;;;1.7;1.5;;;;;;;2.98;99.22363;939.9781;;;;
2022/11/06 04:58:43;;;;;;;1.7;1.5;;;;;;;3.03;98.81152;939.9077;;;;
2022/11/06 05:01:11;;;;;;;1.8;1.5;;;;;;;2.98;98.9541;940.0033;;;;
2022/11/06 05:03:39;;;;;;;4;3.6;;;;;;;2.96;99.50195;939.9218;;;;
2022/11/06 05:06:53;;;;;;;7.1;6.4;;;;;;;2.88;100;939.9878;;;;
2022/11/06 05:09:23;;;;;;;1.6;1.5;;;;;;;2.76;100;939.9903;;;;
2022/11/06 05:15:19;;;;;;;2;1.7;;;;;;;2.72;100;939.9574;;;;
2022/11/06 05:17:44;;;;;;;2.1;1.5;;;;;;;2.65;100;939.9338;;;;
2022/11/06 05:20:17;;;;;;;2;1.8;;;;;;;2.57;100;939.9319;;;;
2022/11/06 05:22:59;;;;;;;2.7;2.1;;;;;;;2.41;100;939.9416;;;;
2022/11/06 05:25:21;;;;;;;6.7;5.2;;;;;;;2.39;100;939.8739;;;;
2022/11/06 05:27:50;;;;;;;5.3;4.7;;;;;;;2.49;100;939.8572;;;;
2022/11/06 05:30:30;;;;;;;5.9;4.4;;;;;;;2.66;100;939.9367;;;;
2022/11/06 05:32:56;;;;;;;3.6;2.7;;;;;;;2.79;100;939.9451;;;;
2022/11/06 05:35:26;;;;;;;2.6;2.4;;;;;;;2.81;100;939.9135;;;;
2022/11/06 05:37:51;;;;;;;5.5;3.3;;;;;;;2.95;100;939.8884;;;;
2022/11/06 05:40:16;;;;;;;4.7;3.3;;;;;;;3.06;99.19727;939.8363;;;;
2022/11/06 05:42:42;;;;;;;3.9;2.7;;;;;;;3.03;98.46191;939.8075;;;;
2022/11/06 05:45:11;;;;;;;2.8;2.4;;;;;;;2.95;97.98145;939.8337;;;;
2022/11/06 05:47:36;;;;;;;2.8;1.8;;;;;;;2.73;98.33691;939.7508;;;;
2022/11/06 05:50:03;;;;;;;1.9;1.7;;;;;;;2.75;98.375;939.7534;;;;
2022/11/06 05:52:45;;;;;;;2.2;1.8;;;;;;;2.75;98.08496;939.77;;;;
2022/11/06 05:55:14;;;;;;;2.2;1.9;;;;;;;2.71;98.15332;939.6801;;;;
2022/11/06 05:57:39;;;;;;;2.1;1.9;;;;;;;2.7;98.12695;939.7678;;;;
2022/11/06 06:00:08;;;;;;;2.2;2;;;;;;;2.62;98.21094;939.7897;;;;
2022/11/06 06:02:33;;;;;;;1.8;1.6;;;;;;;2.48;98.91699;939.8084;;;;
2022/11/06 06:04:58;;;;;;;1.6;1.4;;;;;;;2.19;100;939.7785;;;;
2022/11/06 06:07:24;;;;;;;3.4;2.5;;;;;;;2.12;100;939.7188;;;;
2022/11/06 06:09:49;;;;;;;4.2;2.8;;;;;;;2.16;100;939.7811;;;;
2022/11/06 06:12:16;;;;;;;2.5;2.2;;;;;;;2.29;100;939.7879;;;;
2022/11/06 06:14:43;;;;;;;1.9;1.8;;;;;;;2.14;100;939.6697;;;;
2022/11/06 06:17:09;;;;;;;2.6;1.9;;;;;;;2.08;100;939.623;;;;
2022/11/06 06:19:38;;;;;;;8;7;;;;;;;2.08;100;939.7445;;;;
2022/11/06 06:22:03;;;;;;;2.3;2;;;;;;;2.04;100;939.8081;;;;
2022/11/06 06:24:32;;;;;;;2.4;2.2;;;;;;;1.98;100;939.7419;;;;
2022/11/06 06:26:57;;;;;;;2.3;2.1;;;;;;;2.01;100;939.678;;;;
2022/11/06 06:29:22;;;;;;;4.1;3;;;;;;;2.04;100;939.6456;;;;
2022/11/06 06:31:48;;;;;;;3.7;3.3;;;;;;;2.1;100;939.6489;;;;
2022/11/06 06:34:16;;;;;;;3.8;3.5;;;;;;;2.04;100;939.6973;;;;
2022/11/06 06:39:41;;;;;;;3.4;2.9;;;;;;;2.11;100;939.6245;;;;
2022/11/06 06:42:06;;;;;;;4.4;3.9;;;;;;;2.13;100;939.5711;;;;
2022/11/06 06:44:36;;;;;;;5.2;4.3;;;;;;;2.35;100;939.4825;;;;
2022/11/06 06:47:06;;;;;;;5.2;3.8;;;;;;;2.54;100;939.5447;;;;
2022/11/06 06:49:49;;;;;;;5.2;4;;;;;;;2.76;100;939.5193;;;;
2022/11/06 06:52:21;;;;;;;3.4;3.1;;;;;;;3.54;100;939.4526;;;;
2022/11/06 06:54:51;;;;;;;3.7;2.9;;;;;;;4;98.27148;939.4818;;;;
2022/11/06 06:57:16;;;;;;;3.3;3;;;;;;;4.25;94.79492;939.5306;;;;
2022/11/06 06:59:44;;;;;;;4.6;2.7;;;;;;;4.33;92.16602;939.5134;;;;
2022/11/06 07:02:10;;;;;;;2.1;1.9;;;;;;;4.3;91.0918;939.5061;;;;
2022/11/06 07:04:35;;;;;;;2.1;1.7;;;;;;;4.2;90.98047;939.5236;;;;
2022/11/06 07:07:03;;;;;;;1.8;1.6;;;;;;;4.38;91.08789;939.5083;;;;
2022/11/06 07:09:28;;;;;;;1.8;1.6;;;;;;;4.68;90.46289;939.4684;;;;
2022/11/06 07:11:56;;;;;;;1.5;1.4;;;;;;;5.03;88.27344;939.4694;;;;
2022/11/06 07:14:25;;;;;;;2;1.6;;;;;;;5.41;86.68262;939.4392;;;;
2022/11/06 07:19:29;;;;;;;3.2;2.7;;;;;;;;;;;;;
2022/11/06 07:21:54;;;;;;;5.7;3.2;;;;;;;;;;;;;
2022/11/06 07:24:19;;;;;;;2.4;2.2;;;;;;;;;;;;;
2022/11/06 07:26:44;;;;;;;2;1.7;;;;;;;;;;;;;
2022/11/06 07:29:11;;;;;;;1.5;1.4;;;;;;;;;;;;;
2022/11/06 07:31:36;;;;;;;1.7;1.5;;;;;;;;;;;;;
2022/11/06 07:34:01;;;;;;;1.9;1.4;;;;;;;;;;;;;
2022/11/06 07:36:27;;;;;;;1.4;1.3;;;;;;;;;;;;;
2022/11/06 07:38:52;;;;;;;1.9;1.8;;;;;;;;;;;;;
2022/11/06 07:41:17;;;;;;;1.2;1.1;;;;;;;;;;;;;
2022/11/06 07:43:43;;;;;;;24.9;15.8;;;;;;;;;;;;;
2022/11/06 07:46:09;;;;;;;2.9;2.4;;;;;;;;;;;;;
2022/11/06 07:48:34;;;;;;;3.9;3.1;;;;;;;;;;;;;
2022/11/06 07:50:59;;;;;;;2.6;2.4;;;;;;;;;;;;;
2022/11/06 07:53:24;;;;;;;1.7;1.6;;;;;;;;;;;;;
2022/11/06 07:55:49;;;;;;;2.4;2.2;;;;;;;;;;;;;
2022/11/06 07:58:15;;;;;;;3.6;2;;;;;;;;;;;;;
2022/11/06 08:00:41;;;;;;;3.1;2.5;;;;;;;;;;;;;
2022/11/06 08:03:07;;;;;;;7.2;3.9;;;;;;;;;;;;;
2022/11/06 08:05:32;;;;;;;3;2.3;;;;;;;;;;;;;
2022/11/06 08:07:58;;;;;;;2.5;1.7;;;;;;;;;;;;;
2022/11/06 08:10:23;;;;;;;2.6;2.4;;;;;;;;;;;;;
2022/11/06 08:12:49;;;;;;;3.2;2.3;;;;;;;;;;;;;
2022/11/06 08:15:14;;;;;;;2.6;1.6;;;;;;;;;;;;;
2022/11/06 08:17:42;;;;;;;3.1;2.4;;;;;;;;;;;;;
2022/11/06 08:20:07;;;;;;;3.4;2.5;;;;;;;;;;;;;
2022/11/06 08:22:33;;;;;;;2.9;2.6;;;;;;;;;;;;;
2022/11/06 08:24:58;;;;;;;3.8;3;;;;;;;;;;;;;
2022/11/06 08:27:23;;;;;;;3.1;2.2;;;;;;;;;;;;;
2022/11/06 08:29:48;;;;;;;2;1.8;;;;;;;;;;;;;
2022/11/06 08:32:15;;;;;;;2.2;2;;;;;;;;;;;;;
2022/11/06 08:34:41;;;;;;;1.7;1.6;;;;;;;;;;;;;
2022/11/06 08:37:06;;;;;;;1.6;1.5;;;;;;;;;;;;;
2022/11/06 08:39:31;;;;;;;1.8;1.5;;;;;;;;;;;;;
2022/11/06 08:41:58;;;;;;;2.6;2.2;;;;;;;;;;;;;
2022/11/06 08:44:23;;;;;;;2.2;1.8;;;;;;;;;;;;;
2022/11/06 08:46:49;;;;;;;2.2;2;;;;;;;;;;;;;
2022/11/06 08:49:14;;;;;;;2.4;1.6;;;;;;;;;;;;;
2022/11/06 08:51:40;;;;;;;2.4;1.7;;;;;;;;;;;;;
2022/11/06 08:54:05;;;;;;;2.4;1.7;;;;;;;;;;;;;
2022/11/06 08:56:31;;;;;;;1.1;1;;;;;;;;;;;;;
2022/11/06 08:58:56;;;;;;;0.7;0.7;;;;;;;;;;;;;
2022/11/06 09:01:23;;;;;;;1.4;1.1;;;;;;;;;;;;;
2022/11/06 09:03:47;;;;;;;1.3;1.2;;;;;;;;;;;;;
2022/11/06 09:06:13;;;;;;;1.6;1;;;;;;;;;;;;;
2022/11/06 09:08:38;;;;;;;1.2;1.1;;;;;;;;;;;;;
2022/11/06 09:11:06;;;;;;;1.7;1.1;;;;;;;;;;;;;
2022/11/06 09:13:29;;;;;;;0.9;0.9;;;;;;;;;;;;;
2022/11/06 09:15:56;;;;;;;1;0.8;;;;;;;;;;;;;
2022/11/06 09:18:22;;;;;;;0.8;0.8;;;;;;;;;;;;;
2022/11/06 09:20:47;;;;;;;6;3.2;;;;;;;;;;;;;
2022/11/06 09:23:12;;;;;;;1.4;1.3;;;;;;;;;;;;;
2022/11/06 09:25:38;;;;;;;0.7;0.7;;;;;;;;;;;;;
2022/11/06 09:28:03;;;;;;;0.8;0.6;;;;;;;;;;;;;
2022/11/06 09:30:28;;;;;;;1.1;0.8;;;;;;;;;;;;;
2022/11/06 09:32:53;;;;;;;0.5;0.5;;;;;;;;;;;;;
2022/11/06 09:35:22;;;;;;;0.6;0.6;;;;;;;;;;;;;
2022/11/06 09:37:47;;;;;;;0.5;0.5;;;;;;;;;;;;;
2022/11/06 09:40:14;;;;;;;1;0.9;;;;;;;;;;;;;
2022/11/06 09:42:39;;;;;;;1.2;1.1;;;;;;;;;;;;;
2022/11/06 09:45:04;;;;;;;0.8;0.8;;;;;;;;;;;;;
2022/11/06 09:47:29;;;;;;;0.6;0.6;;;;;;;;;;;;;
2022/11/06 09:49:55;;;;;;;1.1;0.8;;;;;;;;;;;;;
2022/11/06 09:52:20;;;;;;;0.8;0.8;;;;;;;;;;;;;
2022/11/06 09:54:45;;;;;;;0.7;0.7;;;;;;;;;;;;;
2022/11/06 09:57:10;;;;;;;0.9;0.8;;;;;;;;;;;;;
2022/11/06 09:59:35;;;;;;;1.2;0.8;;;;;;;;;;;;;
2022/11/06 10:02:02;;;;;;;1.1;1;;;;;;;;;;;;;
2022/11/06 10:04:27;;;;;;;0.8;0.8;;;;;;;;;;;;;
2022/11/06 10:06:54;;;;;;;1.3;1.2;;;;;;;;;;;;;
2022/11/06 10:09:20;;;;;;;1.3;1.2;;;;;;;;;;;;;
2022/11/06 10:11:47;;;;;;;2.3;1.1;;;;;;;;;;;;;
2022/11/06 10:14:12;;;;;;;0.8;0.8;;;;;;;;;;;;;
2022/11/06 10:16:41;;;;;;;0.7;0.7;;;;;;;;;;;;;
2022/11/06 10:19:06;;;;;;;0.8;0.8;;;;;;;;;;;;;
2022/11/06 10:21:31;;;;;;;0.6;0.6;;;;;;;;;;;;;
2022/11/06 10:23:58;;;;;;;1;0.8;;;;;;;;;;;;;
2022/11/06 10:26:24;;;;;;;1.3;1.2;;;;;;;;;;;;;
2022/11/06 10:28:49;;;;;;;1.2;1;;;;;;;;;;;;;
2022/11/06 10:31:16;;;;;;;1.6;1;;;;;;;;;;;;;
2022/11/06 10:33:41;;;;;;;1.2;1.1;;;;;;;;;;;;;
2022/11/06 10:36:06;;;;;;;1.3;1.1;;;;;;;;;;;;;
2022/11/06 10:38:34;;;;;;;1.8;0.9;;;;;;;;;;;;;
2022/11/06 10:40:58;;;;;;;0.7;0.7;;;;;;;;;;;;;
2022/11/06 10:43:24;;;;;;;1;0.9;;;;;;;;;;;;;
2022/11/06 10:45:49;;;;;;;0.8;0.8;;;;;;;;;;;;;
2022/11/06 10:48:15;;;;;;;0.8;0.8;;;;;;;;;;;;;
2022/11/06 10:50:40;;;;;;;0.9;0.9;;;;;;;;;;;;;
2022/11/06 10:53:07;;;;;;;0.7;0.7;;;;;;;;;;;;;
2022/11/06 10:55:32;;;;;;;0.8;0.7;;;;;;;;;;;;;
2022/11/06 10:57:57;;;;;;;1.1;1;;;;;;;;;;;;;
2022/11/06 11:00:22;;;;;;;0.7;0.7;;;;;;;;;;;;;
2022/11/06 11:02:50;;;;;;;0.6;0.5;;;;;;;;;;;;;
2022/11/06 11:05:16;;;;;;;0.8;0.8;;;;;;;;;;;;;
2022/11/06 11:07:43;;;;;;;1.2;1;;;;;;;;;;;;;
2022/11/06 11:10:08;;;;;;;0.5;0.5;;;;;;;;;;;;;
2022/11/06 11:12:34;;;;;;;0.7;0.7;;;;;;;;;;;;;
2022/11/06 11:14:59;;;;;;;0.5;0.5;;;;;;;;;;;;;
2022/11/06 11:17:25;;;;;;;0.4;0.4;;;;;;;;;;;;;
2022/11/06 11:19:50;;;;;;;0.5;0.5;;;;;;;;;;;;;
2022/11/06 11:22:15;;;;;;;0.3;0.3;;;;;;;;;;;;;
2022/11/06 11:24:40;;;;;;;0.5;0.5;;;;;;;;;;;;;
2022/11/06 11:27:05;;;;;;;0.3;0.3;;;;;;;;;;;;;
2022/11/06 11:29:31;;;;;;;0.4;0.4;;;;;;;;;;;;;
2022/11/06 11:31:57;;;;;;;1.1;0.3;;;;;;;;;;;;;
2022/11/06 11:34:22;;;;;;;0.3;0.3;;;;;;;;;;;;;
2022/11/06 11:36:49;;;;;;;0.4;0.4;;;;;;;;;;;;;
2022/11/06 11:39:14;;;;;;;0.3;0.3;;;;;;;;;;;;;
2022/11/06 11:41:40;;;;;;;0.6;0.6;;;;;;;;;;;;;
2022/11/06 11:44:05;;;;;;;0.5;0.5;;;;;;;;;;;;;
2022/11/06 11:46:31;;;;;;;0.4;0.3;;;;;;;;;;;;;
2022/11/06 11:48:56;;;;;;;0.4;0.4;;;;;;;;;;;;;
2022/11/06 11:51:21;;;;;;;0.3;0.3;;;;;;;;;;;;;
2022/11/06 11:53:48;;;;;;;0.6;0.4;;;;;;;;;;;;;
2022/11/06 11:56:13;;;;;;;0.3;0.3;;;;;;;;;;;;;
2022/11/06 11:58:39;;;;;;;1.3;0.5;;;;;;;;;;;;;
2022/11/06 12:01:04;;;;;;;0.6;0.4;;;;;;;;;;;;;
2022/11/06 12:03:31;;;;;;;0.3;0.3;;;;;;;;;;;;;
2022/11/06 12:05:56;;;;;;;0.7;0.4;;;;;;;;;;;;;
2022/11/06 12:08:23;;;;;;;0.8;0.4;;;;;;;;;;;;;
2022/11/06 12:10:48;;;;;;;0.4;0.4;;;;;;;;;;;;;
2022/11/06 12:13:13;;;;;;;0.3;0.3;;;;;;;;;;;;;
2022/11/06 12:15:41;;;;;;;0.5;0.3;;;;;;;;;;;;;
2022/11/06 12:18:06;;;;;;;0.4;0.4;;;;;;;;;;;;;
2022/11/06 12:20:33;;;;;;;0.8;0.4;;;;;;;;;;;;;
2022/11/06 12:22:58;;;;;;;0.2;0.2;;;;;;;;;;;;;
2022/11/06 12:25:26;;;;;;;0.2;0.2;;;;;;;;;;;;;
2022/11/06 12:27:51;;;;;;;1;0.2;;;;;;;;;;;;;
2022/11/06 12:30:16;;;;;;;0.3;0.3;;;;;;;;;;;;;
2022/11/06 12:32:41;;;;;;;0.5;0.3;;;;;;;;;;;;;
2022/11/06 12:35:06;;;;;;;0.2;0.2;;;;;;;;;;;;;
2022/11/06 12:37:31;;;;;;;0.3;0.3;;;;;;;;;;;;;
2022/11/06 12:39:57;;;;;;;0.2;0.2;;;;;;;;;;;;;
2022/11/06 12:42:23;;;;;;;0.4;0.3;;;;;;;;;;;;;
2022/11/06 12:44:48;;;;;;;0.2;0.2;;;;;;;;;;;;;
2022/11/06 12:47:15;;;;;;;0.3;0.3;;;;;;;;;;;;;
2022/11/06 12:49:40;;;;;;;0.5;0.5;;;;;;;;;;;;;
2022/11/06 12:52:07;;;;;;;0.2;0.2;;;;;;;;;;;;;
2022/11/06 12:54:32;;;;;;;1.1;0.8;;;;;;;;;;;;;
2022/11/06 12:56:57;;;;;;;1.2;0.9;;;;;;;;;;;;;
2022/11/06 12:59:24;;;;;;;0.4;0.4;;;;;;;;;;;;;
2022/11/06 13:01:51;;;;;;;0.3;0.3;;;;;;;;;;;;;
2022/11/06 13:04:16;;;;;;;0.4;0.4;;;;;;;;;;;;;
2022/11/06 13:06:39;;;;;;;0.2;0.2;;;;;;;;;;;;;
2022/11/06 13:09:05;;;;;;;1.2;0.2;;;;;;;;;;;;;
2022/11/06 13:11:32;;;;;;;0.5;0.3;;;;;;;;;;;;;
2022/11/06 13:13:57;;;;;;;0.2;0.2;;;;;;;;;;;;;
2022/11/06 13:16:22;;;;;;;0.4;0.4;;;;;;;;;;;;;
2022/11/06 13:18:48;;;;;;;0.3;0.3;;;;;;;;;;;;;
2022/11/06 13:21:56;;;;;;;0.2;0.2;;;;;;;;;;;;;
2022/11/06 13:24:12;;;;;;;0.4;0.4;;;;;;;;;;;;;
2022/11/06 13:26:38;;;;;;;0.2;0.2;;;;;;;;;;;;;
2022/11/06 13:29:03;;;;;;;0.2;0.2;;;;;;;;;;;;;
2022/11/06 13:31:29;;;;;;;0.5;0.5;;;;;;;;;;;;;
2022/11/06 13:33:55;;;;;;;0.6;0.6;;;;;;;;;;;;;
2022/11/06 13:36:21;;;;;;;0.4;0.4;;;;;;;;;;;;;
2022/11/06 13:38:46;;;;;;;0.3;0.3;;;;;;;;;;;;;
2022/11/06 13:41:12;;;;;;;0.5;0.5;;;;;;;;;;;;;
2022/11/06 13:43:37;;;;;;;0.3;0.3;;;;;;;;;;;;;
2022/11/06 13:46:04;;;;;;;0.3;0.3;;;;;;;;;;;;;
2022/11/06 13:48:29;;;;;;;0.6;0.6;;;;;;;;;;;;;
2022/11/06 13:50:54;;;;;;;1.5;0.9;;;;;;;;;;;;;
2022/11/06 13:53:19;;;;;;;0.5;0.5;;;;;;;;;;;;;
2022/11/06 13:55:45;;;;;;;0.6;0.6;;;;;;;;;;;;;
2022/11/06 13:58:10;;;;;;;0.5;0.5;;;;;;;;;;;;;
2022/11/06 14:00:35;;;;;;;0.7;0.7;;;;;;;;;;;;;
2022/11/06 14:03:00;;;;;;;1.8;0.9;;;;;;;;;;;;;
2022/11/06 14:05:25;;;;;;;0.7;0.6;;;;;;;;;;;;;
2022/11/06 14:07:50;;;;;;;3.1;2;;;;;;;;;;;;;
2022/11/06 14:10:16;;;;;;;4;2.4;;;;;;;;;;;;;
2022/11/06 14:12:41;;;;;;;1.9;1.5;;;;;;;;;;;;;
2022/11/06 14:15:06;;;;;;;1.2;0.6;;;;;;;;;;;;;
2022/11/06 14:17:31;;;;;;;0.7;0.5;;;;;;;;;;;;;
2022/11/06 14:19:56;;;;;;;0.8;0.5;;;;;;;;;;;;;
2022/11/06 14:22:22;;;;;;;0.5;0.5;;;;;;;;;;;;;
2022/11/06 14:24:48;;;;;;;0.3;0.3;;;;;;;;;;;;;
2022/11/06 14:27:13;;;;;;;0.3;0.3;;;;;;;;;;;;;
2022/11/06 14:29:38;;;;;;;0.2;0.2;;;;;;;;;;;;;
2022/11/06 14:32:05;;;;;;;0.7;0.4;;;;;;;;;;;;;
2022/11/06 14:34:31;;;;;;;0.4;0.4;;;;;;;;;;;;;
2022/11/06 14:36:56;;;;;;;0.5;0.4;;;;;;;;;;;;;
2022/11/06 14:39:21;;;;;;;0.4;0.4;;;;;;;;;;;;;
2022/11/06 14:41:46;;;;;;;0.7;0.7;;;;;;;;;;;;;
2022/11/06 14:46:52;;;;;;;1.1;0.4;;;;;;;;;;;;;
2022/11/06 14:49:18;;;;;;;0.8;0.6;;;;;;;;;;;;;
2022/11/06 14:51:43;;;;;;;0.5;0.5;;;;;;;;;;;;;
2022/11/06 14:54:08;;;;;;;3.8;0.7;;;;;;;;;;;;;
2022/11/06 14:56:38;;;;;;;0.4;0.4;;;;;;;;;;;;;
2022/11/06 14:59:03;;;;;;;2;1.3;;;;;;;;;;;;;
2022/11/06 15:01:32;;;;;;;2.1;1.9;;;;;;;;;;;;;
2022/11/06 15:03:57;;;;;;;1.2;0.9;;;;;;;;;;;;;
2022/11/06 15:06:22;;;;;;;1.1;1;;;;;;;;;;;;;
2022/11/06 15:08:47;;;;;;;0.8;0.7;;;;;;;;;;;;;
2022/11/06 15:11:12;;;;;;;0.8;0.8;;;;;;;;;;;;;
2022/11/06 15:13:38;;;;;;;1.1;0.9;;;;;;;;;;;;;
2022/11/06 15:16:04;;;;;;;2.4;1.9;;;;;;;;;;;;;
2022/11/06 15:18:33;;;;;;;2.8;1.7;;;;;;;;;;;;;
2022/11/06 15:20:56;;;;;;;2.5;2;;;;;;;;;;;;;
2022/11/06 15:23:23;;;;;;;2.5;2.3;;;;;;;;;;;;;
2022/11/06 15:25:48;;;;;;;2.9;2;;;;;;;;;;;;;
2022/11/06 15:28:13;;;;;;;3.1;2;;;;;;;;;;;;;
2022/11/06 15:30:38;;;;;;;3.7;2.1;;;;;;;;;;;;;
2022/11/06 15:33:03;;;;;;;2.9;1.5;;;;;;;;;;;;;
2022/11/06 15:35:30;;;;;;;2.3;1.4;;;;;;;;;;;;;
2022/11/06 15:37:55;;;;;;;2.9;1.2;;;;;;;;;;;;;
2022/11/06 15:40:21;;;;;;;2.5;1.4;;;;;;;;;;;;;
2022/11/06 15:42:46;;;;;;;3;1.7;;;;;;;;;;;;;
2022/11/06 15:45:11;;;;;;;2.7;1.7;;;;;;;;;;;;;
2022/11/06 15:47:37;;;;;;;2.9;1.6;;;;;;;;;;;;;
2022/11/06 15:50:02;;;;;;;2.8;1.9;;;;;;;;;;;;;
2022/11/06 15:52:27;;;;;;;3.7;2.8;;;;;;;;;;;;;
2022/11/06 15:54:52;;;;;;;3.8;2.9;;;;;;;;;;;;;
2022/11/06 15:57:17;;;;;;;8.1;6.1;;;;;;;;;;;;;
2022/11/06 15:59:43;;;;;;;5;4;;;;;;;;;;;;;
2022/11/06 16:02:08;;;;;;;4;2.3;;;;;;;;;;;;;
2022/11/06 16:04:33;;;;;;;3.7;2.4;;;;;;;;;;;;;
2022/11/06 16:06:59;;;;;;;3.1;2.8;;;;;;;;;;;;;
2022/11/06 16:09:24;;;;;;;5.3;2.9;;;;;;;;;;;;;
2022/11/06 16:11:50;;;;;;;5.7;3.6;;;;;;;;;;;;;
2022/11/06 16:14:21;;;;;;;5.2;3.8;;;;;;;;;;;;;
2022/11/06 16:16:46;;;;;;;5.7;2.9;;;;;;;;;;;;;
2022/11/06 16:19:11;;;;;;;6.9;4.9;;;;;;;;;;;;;
2022/11/06 16:21:37;;;;;;;11.1;8.1;;;;;;;;;;;;;
2022/11/06 16:24:17;;;;;;;7.4;5.7;;;;;;;;;;;;;
2022/11/06 16:26:43;;;;;;;2.6;1.8;;;;;;;;;;;;;
2022/11/06 16:29:11;;;;;;;3.6;1.9;;;;;;;;;;;;;
2022/11/06 16:31:36;;;;;;;5.9;3.5;;;;;;;;;;;;;
2022/11/06 16:34:01;;;;;;;7.2;5;;;;;;;;;;;;;
2022/11/06 16:36:26;;;;;;;8.2;5.5;;;;;;;;;;;;;
2022/11/06 16:38:53;;;;;;;10.5;7.1;;;;;;;;;;;;;
2022/11/06 16:41:38;;;;;;;11;6.8;;;;;;;;;;;;;
2022/11/06 16:43:44;;;;;;;11.7;7.4;;;;;;;;;;;;;
2022/11/06 16:46:09;;;;;;;12.1;8.6;;;;;;;;;;;;;
2022/11/06 16:48:35;;;;;;;16.1;12;;;;;;;;;;;;;
2022/11/06 16:50:59;;;;;;;21.9;14.6;;;;;;;;;;;;;
2022/11/06 16:53:25;;;;;;;18.5;12.2;;;;;;;;;;;;;
2022/11/06 16:55:50;;;;;;;14.9;10.9;;;;;;;;;;;;;
2022/11/06 16:58:17;;;;;;;17.6;9.9;;;;;;;;;;;;;
2022/11/06 17:00:42;;;;;;;15.2;9.3;;;;;;;;;;;;;
2022/11/06 17:03:08;;;;;;;14;9.7;;;;;;;;;;;;;
2022/11/06 17:05:35;;;;;;;16.4;11.2;;;;;;;;;;;;;
2022/11/06 17:08:01;;;;;;;14.4;10.3;;;;;;;;;;;;;
2022/11/06 17:10:26;;;;;;;21.5;11.9;;;;;;;;;;;;;
2022/11/06 17:12:51;;;;;;;15.8;9.4;;;;;;;;;;;;;
2022/11/06 17:15:18;;;;;;;14;9.6;;;;;;;;;;;;;
2022/11/06 17:17:42;;;;;;;18.4;10.8;;;;;;;;;;;;;
2022/11/06 17:20:07;;;;;;;18;11.1;;;;;;;;;;;;;
2022/11/06 17:22:33;;;;;;;17.6;11.6;;;;;;;;;;;;;
2022/11/06 17:24:58;;;;;;;20;11.6;;;;;;;;;;;;;
2022/11/06 17:27:28;;;;;;;16.1;10.6;;;;;;;;;;;;;
2022/11/06 17:29:53;;;;;;;12;8.2;;;;;;;;;;;;;
2022/11/06 17:32:19;;;;;;;17.6;9.1;;;;;;;;;;;;;
2022/11/06 17:34:44;;;;;;;13.5;9.4;;;;;;;;;;;;;
2022/11/06 17:37:11;;;;;;;9.9;7.1;;;;;;;;;;;;;
2022/11/06 17:39:36;;;;;;;11.4;7.2;;;;;;;;;;;;;
2022/11/06 17:42:01;;;;;;;8.9;6.9;;;;;;;;;;;;;
2022/11/06 17:44:26;;;;;;;6.5;5.1;;;;;;;;;;;;;
2022/11/06 17:46:54;;;;;;;28.4;13.2;;;;;;;;;;;;;
2022/11/06 17:49:19;;;;;;;10.3;6.3;;;;;;;;;;;;;
2022/11/06 17:51:59;;;;;;;18;9.9;;;;;;;;;;;;;
2022/11/06 17:54:09;;;;;;;13.1;8.3;;;;;;;;;;;;;
2022/11/06 17:56:35;;;;;;;11.1;7.3;;;;;;;;;;;;;
2022/11/06 17:59:01;;;;;;;7.9;5.6;;;;;;;;;;;;;
2022/11/06 18:01:27;;;;;;;6.3;4.3;;;;;;;;;;;;;
2022/11/06 18:03:52;;;;;;;6.7;5.1;;;;;;;;;;;;;
2022/11/06 18:06:17;;;;;;;9.9;6.1;;;;;;;;;;;;;
2022/11/06 18:08:43;;;;;;;11.9;8.4;;;;;;;;;;;;;
2022/11/06 18:11:08;;;;;;;16.7;11.5;;;;;;;;;;;;;
2022/11/06 18:13:33;;;;;;;24.3;14.8;;;;;;;;;;;;;
2022/11/06 18:16:04;;;;;;;30.9;19.2;;;;;;;;;;;;;
2022/11/06 18:18:33;;;;;;;33.9;20.4;;;;;;;;;;;;;
2022/11/06 18:20:58;;;;;;;31.9;19.1;;;;;;;;;;;;;
2022/11/06 18:23:23;;;;;;;25;16.3;;;;;;;;;;;;;
2022/11/06 18:25:48;;;;;;;20.6;13.5;;;;;;;;;;;;;
2022/11/06 18:28:15;;;;;;;25.3;16.6;;;;;;;;;;;;;
2022/11/06 18:30:41;;;;;;;23.3;15.3;;;;;;;;;;;;;
2022/11/06 18:33:07;;;;;;;28;17.6;;;;;;;;;;;;;
2022/11/06 18:35:32;;;;;;;25.6;16.5;;;;;;;;;;;;;
2022/11/06 18:37:57;;;;;;;23.5;16;;;;;;;;;;;;;
2022/11/06 18:40:22;;;;;;;23.7;15.3;;;;;;;;;;;;;
2022/11/06 18:42:49;;;;;;;21.9;14.1;;;;;;;;;;;;;
2022/11/06 18:45:14;;;;;;;14.9;9.8;;;;;;;;;;;;;
2022/11/06 18:47:43;;;;;;;17.4;11.8;;;;;;;;;;;;;
2022/11/06 18:50:13;;;;;;;23.7;14.3;;;;;;;;;;;;;
2022/11/06 18:52:38;;;;;;;16.3;10.8;;;;;;;;;;;;;
2022/11/06 18:55:04;;;;;;;15.8;10.8;;;;;;;;;;;;;
2022/11/06 18:57:29;;;;;;;26;17.5;;;;;;;;;;;;;
2022/11/06 18:59:56;;;;;;;26.9;19.2;;;;;;;;;;;;;
2022/11/06 19:02:21;;;;;;;13.1;9.2;;;;;;;;;;;;;
2022/11/06 19:04:47;;;;;;;26.5;18.1;;;;;;;;;;;;;
2022/11/06 19:07:12;;;;;;;18.3;13.3;;;;;;;;;;;;;
2022/11/06 19:09:37;;;;;;;18.9;12;;;;;;;;;;;;;
2022/11/06 19:12:02;;;;;;;18.1;12.2;;;;;;;;;;;;;
2022/11/06 19:14:29;;;;;;;23.3;15.7;;;;;;;;;;;;;
2022/11/06 19:16:54;;;;;;;25.6;16.3;;;;;;;;;;;;;
2022/11/06 19:19:19;;;;;;;25.6;16.4;;;;;;;;;;;;;
2022/11/06 19:21:46;;;;;;;21.1;14.3;;;;;;;;;;;;;
2022/11/06 19:24:11;;;;;;;22.2;14.9;;;;;;;;;;;;;
2022/11/06 19:26:36;;;;;;;23;14.5;;;;;;;;;;;;;
2022/11/06 19:29:02;;;;;;;19.1;13.1;;;;;;;;;;;;;
2022/11/06 19:31:28;;;;;;;21.4;14.3;;;;;;;;;;;;;
2022/11/06 19:33:53;;;;;;;18.2;12.3;;;;;;;;;;;;;
2022/11/06 19:36:18;;;;;;;17.5;11.8;;;;;;;;;;;;;
2022/11/06 19:38:46;;;;;;;18.5;12.2;;;;;;;;;;;;;
2022/11/06 19:41:11;;;;;;;16.1;10.7;;;;;;;;;;;;;
2022/11/06 19:43:38;;;;;;;22.1;14.5;;;;;;;;;;;;;
2022/11/06 19:46:03;;;;;;;25.7;16.4;;;;;;;;;;;;;
2022/11/06 19:48:28;;;;;;;23.3;15.6;;;;;;;;;;;;;
2022/11/06 19:50:53;;;;;;;32.1;20.7;;;;;;;;;;;;;
2022/11/06 19:53:19;;;;;;;24.2;16.6;;;;;;;;;;;;;